YXMW weather

Merriwa Hospital Helipad
Merriwa, New South Wales, Australia

Public forecast

Using degrees Celsius for public forecast. Weather courtesy of forecast.io.

METAR (pilot weather report)

Closest report is Mudgee Airport, 45.6 nm (84.5 km) WSW. Retrieved 2019/09/15 04:00 UTC (31 minutes ago):

YMDG 150400Z AUTO 27010KT 260V360 9999 // NCD 26/M09 Q1020

TAF (pilot weather forecast)

Forecast is more than 12 hours old.

Closest forecast is Tamworth Airport, 68.3 nm (126.5 km) NNE. Retrieved 2019/09/14 00:36 UTC (1 day ago):

TAF TAF YSTW 142245Z 1500/1518 14005KT CAVOK FM150100 27008KT CAVOK FM150900 05008KT CAVOK